createdAt,value
2022-09-24T00:00:09.978Z,95234.28
2022-09-24T00:02:38.790Z,95239.13
2022-09-24T00:05:08.578Z,95228.22
2022-09-24T00:07:37.182Z,95224.19
2022-09-24T00:10:06.591Z,95227.41
2022-09-24T00:12:37.471Z,95227.03
2022-09-24T00:15:07.318Z,95226.22
2022-09-24T00:17:36.046Z,95232.47
2022-09-24T00:20:05.151Z,95224.78
2022-09-24T00:22:34.265Z,95228.81
2022-09-24T00:25:20.504Z,95216.28
2022-09-24T00:27:50.712Z,95218.09
2022-09-24T00:30:19.640Z,95218.50
2022-09-24T00:32:48.302Z,95218.28
2022-09-24T00:35:17.161Z,95218.88
2022-09-24T00:37:45.910Z,95216.25
2022-09-24T00:40:15.946Z,95221.50
2022-09-24T00:42:44.635Z,95216.69
2022-09-24T00:45:14.807Z,95221.13
2022-09-24T00:47:45.035Z,95221.50
2022-09-24T00:50:20.684Z,95211.81
2022-09-24T00:52:54.078Z,95213.81
2022-09-24T00:55:23.934Z,95209.97
2022-09-24T00:57:56.926Z,95214.00
2022-09-24T01:00:27.927Z,95212.13
2022-09-24T01:03:01.252Z,95210.50
2022-09-24T01:05:30.360Z,95210.88
2022-09-24T01:07:59.234Z,95203.19
2022-09-24T01:10:51.427Z,95203.81
2022-09-24T01:13:59.335Z,95196.50
2022-09-24T01:16:39.223Z,95204.94
2022-09-24T01:19:19.548Z,95200.72
2022-09-24T01:21:55.434Z,95206.13
2022-09-24T01:24:52.379Z,95210.56
2022-09-24T01:27:28.914Z,95207.91
2022-09-24T01:30:05.404Z,95204.44
2022-09-24T01:32:38.542Z,95218.94
2022-09-24T01:35:11.136Z,95216.75
2022-09-24T01:37:42.630Z,95217.69
2022-09-24T01:40:13.921Z,95216.88
2022-09-24T01:42:44.988Z,95222.41
2022-09-24T01:45:17.594Z,95219.44
2022-09-24T01:47:46.999Z,95221.47
2022-09-24T01:50:18.472Z,95220.22
2022-09-24T01:52:53.797Z,95222.66
2022-09-24T01:55:26.877Z,95233.22
2022-09-24T01:57:58.059Z,95227.56
2022-09-24T02:00:28.938Z,95235.16
2022-09-24T02:03:01.827Z,95237.97
2022-09-24T02:05:35.434Z,95232.16
2022-09-24T02:08:08.851Z,95235.41
2022-09-24T02:10:47.154Z,95237.81
2022-09-24T02:13:18.609Z,95233.41
2022-09-24T02:15:53.340Z,95237.59
2022-09-24T02:18:28.632Z,95245.91
2022-09-24T02:20:59.036Z,95247.09
2022-09-24T02:23:29.568Z,95246.63
2022-09-24T02:26:02.607Z,95249.47
2022-09-24T02:28:32.424Z,95260.81
2022-09-24T02:31:09.052Z,95255.34
2022-09-24T02:33:57.851Z,95250.63
2022-09-24T02:36:27.136Z,95260.97
2022-09-24T02:38:55.854Z,95262.59
2022-09-24T02:41:26.541Z,95261.81
2022-09-24T02:43:55.427Z,95261.59
2022-09-24T02:46:25.761Z,95270.03
2022-09-24T02:48:54.730Z,95265.38
2022-09-24T02:51:23.493Z,95264.00
2022-09-24T02:53:52.150Z,95268.81
2022-09-24T02:56:20.836Z,95268.63
2022-09-24T02:58:49.629Z,95275.13
2022-09-24T03:01:18.387Z,95273.88
2022-09-24T03:03:48.951Z,95275.84
2022-09-24T03:06:17.649Z,95274.78
2022-09-24T03:08:47.003Z,95273.69
2022-09-24T03:11:18.691Z,95268.78
2022-09-24T03:13:47.668Z,95273.22
2022-09-24T03:16:17.315Z,95271.00
2022-09-24T03:18:49.463Z,95267.94
2022-09-24T03:21:20.109Z,95273.84
2022-09-24T03:23:48.803Z,95271.28
2022-09-24T03:26:18.157Z,95273.09
2022-09-24T03:28:47.009Z,95280.03
2022-09-24T03:31:14.861Z,95276.03
2022-09-24T03:33:45.544Z,95268.09
2022-09-24T03:36:17.417Z,95279.69
2022-09-24T03:38:48.617Z,95281.78
2022-09-24T03:41:18.949Z,95281.91
2022-09-24T03:43:47.554Z,95285.09
2022-09-24T03:46:17.384Z,95279.75
2022-09-24T03:48:47.568Z,95285.81
2022-09-24T03:51:20.317Z,95288.75
2022-09-24T03:53:49.607Z,95284.00
2022-09-24T03:56:18.271Z,95281.06
2022-09-24T03:58:48.370Z,95289.91
2022-09-24T04:01:21.711Z,95282.72
2022-09-24T04:03:51.478Z,95282.44
2022-09-24T04:06:25.743Z,95283.00
2022-09-24T04:08:55.677Z,95284.63
2022-09-24T04:11:24.981Z,95284.63
2022-09-24T04:13:54.338Z,95291.44
2022-09-24T04:16:23.284Z,95284.25
2022-09-24T04:18:52.009Z,95289.44
2022-09-24T04:21:22.060Z,95294.50
2022-09-24T04:23:50.667Z,95296.31
2022-09-24T04:26:21.158Z,95293.44
2022-09-24T04:28:50.637Z,95301.75
2022-09-24T04:31:20.095Z,95304.34
2022-09-24T04:33:48.952Z,95308.66
2022-09-24T04:36:18.224Z,95308.81
2022-09-24T04:38:48.378Z,95316.56
2022-09-24T04:41:17.449Z,95310.22
2022-09-24T04:43:46.887Z,95310.91
2022-09-24T04:46:15.940Z,95321.41
2022-09-24T04:48:44.925Z,95318.56
2022-09-24T04:51:13.815Z,95324.16
2022-09-24T04:53:42.504Z,95321.59
2022-09-24T04:56:12.995Z,95311.56
2022-09-24T04:58:41.708Z,95310.53
2022-09-24T05:01:10.962Z,95312.38
2022-09-24T05:03:39.736Z,95321.28
2022-09-24T05:06:08.805Z,95322.41
2022-09-24T05:08:37.422Z,95324.03
2022-09-24T05:11:06.330Z,95324.28
2022-09-24T05:13:36.606Z,95326.00
2022-09-24T05:16:05.308Z,95325.16
2022-09-24T05:18:33.966Z,95320.56
2022-09-24T05:21:02.652Z,95328.53
2022-09-24T05:23:31.346Z,95328.72
2022-09-24T05:26:17.537Z,95321.56
2022-09-24T05:28:47.700Z,95327.97
2022-09-24T05:31:17.459Z,95327.72
2022-09-24T05:33:46.359Z,95330.00
2022-09-24T05:36:15.482Z,95333.16
2022-09-24T05:38:44.134Z,95333.19
2022-09-24T05:41:12.859Z,95337.97
2022-09-24T05:43:41.658Z,95347.47
2022-09-24T05:46:11.871Z,95338.66
2022-09-24T05:48:40.559Z,95351.44
2022-09-24T05:51:09.601Z,95355.09
2022-09-24T05:53:38.340Z,95355.44
2022-09-24T05:56:07.452Z,95355.25
2022-09-24T05:58:36.184Z,95340.91
2022-09-24T06:01:05.305Z,95343.88
2022-09-24T06:03:35.816Z,95347.75
2022-09-24T06:06:04.763Z,95359.22
2022-09-24T06:08:34.212Z,95354.56
2022-09-24T06:11:05.434Z,95354.13
2022-09-24T06:13:35.472Z,95361.41
2022-09-24T06:16:05.147Z,95365.41
2022-09-24T06:18:36.715Z,95364.97
2022-09-24T06:21:07.961Z,95364.72
2022-09-24T06:23:37.355Z,95364.56
2022-09-24T06:26:08.462Z,95359.09
2022-09-24T06:28:38.215Z,95363.09
2022-09-24T06:31:08.090Z,95366.09
2022-09-24T06:33:38.607Z,95346.78
2022-09-24T06:36:07.811Z,95355.19
2022-09-24T06:38:36.848Z,95358.13
2022-09-24T06:41:06.766Z,95354.00
2022-09-24T06:43:36.303Z,95356.63
2022-09-24T06:46:05.500Z,95358.22
2022-09-24T06:48:34.414Z,95356.00
2022-09-24T06:51:06.441Z,95351.28
2022-09-24T06:53:35.362Z,95349.63
2022-09-24T06:56:04.775Z,95350.47
2022-09-24T06:58:34.183Z,95346.16
2022-09-24T07:01:04.152Z,95346.41
2022-09-24T07:03:34.681Z,95347.59
2022-09-24T07:06:07.035Z,95348.28
2022-09-24T07:08:36.277Z,95349.22
2022-09-24T07:11:05.519Z,95356.44
2022-09-24T07:13:34.401Z,95354.25
2022-09-24T07:16:03.811Z,95365.50
2022-09-24T07:18:32.582Z,95362.06
2022-09-24T07:21:01.382Z,95356.16
2022-09-24T07:23:31.813Z,95359.63
2022-09-24T07:26:00.539Z,95359.88
2022-09-24T07:28:29.410Z,95359.69
2022-09-24T07:30:59.926Z,95360.81
2022-09-24T07:33:29.081Z,95365.44
2022-09-24T07:35:57.854Z,95357.16
2022-09-24T07:38:27.122Z,95354.28
2022-09-24T07:41:00.374Z,95354.22
2022-09-24T07:43:29.341Z,95350.78
2022-09-24T07:45:58.440Z,95344.13
2022-09-24T07:48:27.452Z,95354.03
2022-09-24T07:50:56.339Z,95344.66
2022-09-24T07:53:25.122Z,95346.81
2022-09-24T07:55:53.948Z,95340.09
2022-09-24T07:58:24.082Z,95345.97
2022-09-24T08:00:52.803Z,95352.38
2022-09-24T08:03:21.573Z,95355.34
2022-09-24T08:05:50.519Z,95351.28
2022-09-24T08:08:20.782Z,95358.72
2022-09-24T08:10:49.652Z,95354.41
2022-09-24T08:13:18.447Z,95347.28
2022-09-24T08:15:48.656Z,95352.56
2022-09-24T08:18:17.508Z,95348.19
2022-09-24T08:20:46.086Z,95344.28
2022-09-24T08:23:15.042Z,95339.50
2022-09-24T08:25:43.884Z,95342.78
2022-09-24T08:28:12.616Z,95341.28
2022-09-24T08:30:41.939Z,95338.91
2022-09-24T08:33:12.176Z,95340.28
2022-09-24T08:35:40.855Z,95331.41
2022-09-24T08:38:10.220Z,95332.41
2022-09-24T08:40:44.590Z,95334.59
2022-09-24T08:43:30.185Z,95315.94
2022-09-24T08:46:21.199Z,95318.41
2022-09-24T08:48:54.962Z,95325.88
2022-09-24T08:51:24.642Z,95325.41
2022-09-24T08:54:01.632Z,95315.47
2022-09-24T08:56:33.880Z,95312.03
2022-09-24T08:59:08.439Z,95308.25
2022-09-24T09:01:46.198Z,95308.09
2022-09-24T09:04:26.520Z,95310.19
2022-09-24T09:07:06.491Z,95309.03
2022-09-24T09:09:43.533Z,95303.44
2022-09-24T09:12:18.805Z,95309.25
2022-09-24T09:14:52.397Z,95306.00
2022-09-24T09:17:42.469Z,95291.69
2022-09-24T09:20:18.832Z,95301.72
2022-09-24T09:22:51.228Z,95295.75
2022-09-24T09:25:28.621Z,95297.91
2022-09-24T09:28:02.279Z,95284.38
2022-09-24T09:30:38.797Z,95283.66
2022-09-24T09:33:35.682Z,95287.94
2022-09-24T09:36:20.681Z,95283.28
2022-09-24T09:38:59.714Z,95273.72
2022-09-24T09:41:37.818Z,95270.16
2022-09-24T09:44:15.381Z,95275.50
2022-09-24T09:46:53.102Z,95269.59
2022-09-24T09:49:23.758Z,95276.81
2022-09-24T09:51:57.929Z,95267.31
2022-09-24T09:54:38.100Z,95258.97
2022-09-24T09:57:08.459Z,95264.47
2022-09-24T09:59:37.369Z,95257.66
2022-09-24T10:02:11.923Z,95247.16
2022-09-24T10:04:42.635Z,95253.56
2022-09-24T10:07:14.893Z,95250.78
2022-09-24T10:09:45.337Z,95260.03
2022-09-24T10:12:21.417Z,95246.63
2022-09-24T10:14:59.923Z,95245.88
2022-09-24T10:17:32.818Z,95242.19
2022-09-24T10:20:03.927Z,95248.19
2022-09-24T10:22:34.479Z,95245.38
2022-09-24T10:25:03.540Z,95245.81
2022-09-24T10:27:36.160Z,95249.47
2022-09-24T10:30:32.161Z,95244.06
2022-09-24T10:33:03.252Z,95256.31
2022-09-24T10:35:35.925Z,95252.22
2022-09-24T10:38:18.342Z,95258.28
2022-09-24T10:40:47.638Z,95252.75
2022-09-24T10:43:21.938Z,95251.47
2022-09-24T10:46:08.520Z,95241.09
2022-09-24T10:48:44.645Z,95235.69
2022-09-24T10:51:33.836Z,95247.19
2022-09-24T10:54:22.646Z,95231.03
2022-09-24T10:56:55.127Z,95230.59
2022-09-24T10:59:39.677Z,95232.81
2022-09-24T11:02:39.983Z,95229.28
2022-09-24T11:05:13.960Z,95223.22
2022-09-24T11:08:05.875Z,95227.34
2022-09-24T11:10:57.020Z,95207.66
2022-09-24T11:13:40.632Z,95206.00
2022-09-24T11:16:45.053Z,95199.38
2022-09-24T11:19:26.047Z,95198.25
2022-09-24T11:22:09.435Z,95197.81
2022-09-24T11:25:10.133Z,95198.97
2022-09-24T11:28:12.399Z,95194.50
2022-09-24T11:30:52.200Z,95191.72
2022-09-24T11:33:36.361Z,95189.25
2022-09-24T11:36:24.302Z,95180.59
2022-09-24T11:39:07.595Z,95183.84
2022-09-24T11:41:50.759Z,95183.53
2022-09-24T11:44:36.917Z,95172.13
2022-09-24T11:47:18.032Z,95172.25
2022-09-24T11:50:13.814Z,95167.44
2022-09-24T11:52:46.530Z,95166.28
2022-09-24T11:55:20.553Z,95167.25
2022-09-24T11:57:55.298Z,95157.09
2022-09-24T12:00:32.599Z,95165.88
2022-09-24T12:03:07.029Z,95154.56
2022-09-24T12:05:41.842Z,95149.97
2022-09-24T12:08:18.217Z,95154.25
2022-09-24T12:10:51.256Z,95157.31
2022-09-24T12:13:22.360Z,95152.81
2022-09-24T12:15:56.679Z,95156.78
2022-09-24T12:18:29.042Z,95156.31
2022-09-24T12:21:02.885Z,95164.88
2022-09-24T12:23:35.799Z,95156.91
2022-09-24T12:26:06.241Z,95161.63
2022-09-24T12:29:07.284Z,95160.47
2022-09-24T12:32:04.565Z,95153.78
2022-09-24T12:34:42.556Z,95158.22
2022-09-24T12:37:16.581Z,95150.28
2022-09-24T12:39:51.362Z,95159.41
2022-09-24T12:42:23.839Z,95159.13
2022-09-24T12:44:56.035Z,95147.03
2022-09-24T12:47:28.474Z,95148.72
2022-09-24T12:50:00.341Z,95155.69
2022-09-24T12:52:34.242Z,95143.59
2022-09-24T12:55:04.467Z,95139.97
2022-09-24T12:57:37.202Z,95132.84
2022-09-24T13:00:29.435Z,95124.59
2022-09-24T13:03:00.629Z,95115.03
2022-09-24T13:05:34.594Z,95120.22
2022-09-24T13:08:05.443Z,95123.22
2022-09-24T13:10:35.959Z,95117.19
2022-09-24T13:13:22.561Z,95123.72
2022-09-24T13:16:02.173Z,95119.53
2022-09-24T13:18:34.998Z,95119.47
2022-09-24T13:21:06.902Z,95130.53
2022-09-24T13:23:48.474Z,95120.94
2022-09-24T13:26:34.670Z,95123.84
2022-09-24T13:29:06.156Z,95117.56
2022-09-24T13:31:51.416Z,95114.44
2022-09-24T13:34:26.203Z,95109.75
2022-09-24T13:37:00.354Z,95116.00
2022-09-24T13:39:36.476Z,95110.72
2022-09-24T13:42:09.876Z,95111.84
2022-09-24T13:44:41.331Z,95103.94
2022-09-24T13:47:16.922Z,95099.16
2022-09-24T13:49:51.688Z,95100.00
2022-09-24T13:52:31.214Z,95101.41
2022-09-24T13:55:04.564Z,95101.59
2022-09-24T13:57:45.199Z,95101.78
2022-09-24T14:00:20.970Z,95095.03
2022-09-24T14:03:06.142Z,95093.47
2022-09-24T14:05:38.284Z,95086.19
2022-09-24T14:08:10.682Z,95087.66
2022-09-24T14:10:40.268Z,95092.44
2022-09-24T14:13:21.989Z,95092.72
2022-09-24T14:15:58.699Z,95095.34
2022-09-24T14:18:29.297Z,95095.56
2022-09-24T14:21:04.684Z,95088.25
2022-09-24T14:23:37.952Z,95087.44
2022-09-24T14:26:08.347Z,95092.44
2022-09-24T14:28:37.283Z,95093.53
2022-09-24T14:31:09.633Z,95090.03
2022-09-24T14:33:40.968Z,95087.88
2022-09-24T14:36:14.298Z,95093.81
2022-09-24T14:38:54.015Z,95094.38
2022-09-24T14:41:29.199Z,95096.25
2022-09-24T14:44:03.606Z,95098.09
2022-09-24T14:46:35.448Z,95096.91
2022-09-24T14:49:18.283Z,95103.00
2022-09-24T14:51:55.577Z,95096.78
2022-09-24T14:54:35.756Z,95102.66
2022-09-24T14:57:12.250Z,95107.22
2022-09-24T14:59:43.047Z,95104.31
2022-09-24T15:02:18.110Z,95106.59
2022-09-24T15:04:49.251Z,95098.50
2022-09-24T15:07:25.519Z,95107.19
2022-09-24T15:09:57.287Z,95105.63
2022-09-24T15:12:31.252Z,95112.88
2022-09-24T15:15:02.772Z,95110.59
2022-09-24T15:17:34.551Z,95103.63
2022-09-24T15:20:05.519Z,95101.84
2022-09-24T15:22:35.827Z,95104.25
2022-09-24T15:25:05.083Z,95107.84
2022-09-24T15:27:35.931Z,95109.81
2022-09-24T15:30:08.070Z,95103.94
2022-09-24T15:32:37.094Z,95112.97
2022-09-24T15:35:09.738Z,95113.16
2022-09-24T15:37:41.275Z,95108.13
2022-09-24T15:40:20.228Z,95114.38
2022-09-24T15:42:49.215Z,95114.13
2022-09-24T15:45:19.919Z,95117.16
2022-09-24T15:47:48.976Z,95112.09
2022-09-24T15:50:18.115Z,95117.78
2022-09-24T15:52:50.247Z,95115.97
2022-09-24T15:55:21.517Z,95108.22
2022-09-24T15:57:50.376Z,95116.84
2022-09-24T16:00:21.515Z,95106.47
2022-09-24T16:02:52.908Z,95107.59
2022-09-24T16:05:22.136Z,95108.47
2022-09-24T16:07:52.534Z,95113.56
2022-09-24T16:10:21.701Z,95116.56
2022-09-24T16:12:50.689Z,95117.94
2022-09-24T16:15:19.680Z,95123.88
2022-09-24T16:17:50.713Z,95116.94
2022-09-24T16:20:19.690Z,95119.13
2022-09-24T16:22:48.614Z,95119.94
2022-09-24T16:25:19.126Z,95118.34
2022-09-24T16:27:47.974Z,95112.75
2022-09-24T16:30:16.814Z,95117.81
2022-09-24T16:32:46.580Z,95110.56
2022-09-24T16:35:15.833Z,95114.84
2022-09-24T16:37:44.735Z,95114.59
2022-09-24T16:40:13.901Z,95119.13
2022-09-24T16:42:44.388Z,95120.19
2022-09-24T16:45:14.309Z,95121.75
2022-09-24T16:47:43.298Z,95123.63
2022-09-24T16:50:12.249Z,95125.19
2022-09-24T16:52:42.971Z,95137.44
2022-09-24T16:55:12.260Z,95133.69
2022-09-24T16:57:41.570Z,95138.47
2022-09-24T17:00:13.588Z,95143.25
2022-09-24T17:02:42.484Z,95144.56
2022-09-24T17:05:11.685Z,95151.97
2022-09-24T17:07:40.653Z,95150.88
2022-09-24T17:10:14.288Z,95152.94
2022-09-24T17:12:48.471Z,95152.38
2022-09-24T17:15:21.200Z,95153.63
2022-09-24T17:17:51.037Z,95162.63
2022-09-24T17:20:20.800Z,95171.31
2022-09-24T17:22:50.402Z,95172.22
2022-09-24T17:25:19.297Z,95175.81
2022-09-24T17:27:48.193Z,95169.59
2022-09-24T17:30:18.909Z,95177.16
2022-09-24T17:32:47.914Z,95176.19
2022-09-24T17:35:16.749Z,95191.22
2022-09-24T17:37:45.830Z,95197.00
2022-09-24T17:40:21.343Z,95185.72
2022-09-24T17:42:52.952Z,95196.50
2022-09-24T17:45:23.505Z,95198.53
2022-09-24T17:47:58.427Z,95194.47
2022-09-24T17:50:28.830Z,95195.94
2022-09-24T17:52:59.398Z,95199.00
2022-09-24T17:55:28.637Z,95188.81
2022-09-24T17:57:57.487Z,95188.31
2022-09-24T18:00:28.078Z,95191.16
2022-09-24T18:02:57.055Z,95190.75
2022-09-24T18:05:26.140Z,95189.53
2022-09-24T18:07:54.919Z,95185.03
2022-09-24T18:10:23.752Z,95197.22
2022-09-24T18:12:55.837Z,95190.28
2022-09-24T18:15:25.623Z,95193.09
2022-09-24T18:17:56.876Z,95194.56
2022-09-24T18:20:26.371Z,95202.75
2022-09-24T18:22:55.294Z,95204.84
2022-09-24T18:25:24.160Z,95206.97
2022-09-24T18:27:53.173Z,95206.75
2022-09-24T18:30:22.158Z,95206.94
2022-09-24T18:32:50.818Z,95204.75
2022-09-24T18:35:20.954Z,95208.84
2022-09-24T18:37:49.867Z,95209.00
2022-09-24T18:40:18.907Z,95203.97
2022-09-24T18:42:47.956Z,95208.03
2022-09-24T18:45:18.019Z,95207.34
2022-09-24T18:47:46.975Z,95208.63
2022-09-24T18:50:16.414Z,95205.66
2022-09-24T18:52:46.852Z,95209.56
2022-09-24T18:55:15.872Z,95205.31
2022-09-24T18:57:44.732Z,95198.06
2022-09-24T19:00:34.537Z,95203.13
2022-09-24T19:03:03.712Z,95207.63
2022-09-24T19:05:32.720Z,95206.03
2022-09-24T19:08:03.465Z,95207.78
2022-09-24T19:10:33.587Z,95224.97
2022-09-24T19:13:02.817Z,95215.59
2022-09-24T19:15:31.694Z,95214.00
2022-09-24T19:18:00.518Z,95217.56
2022-09-24T19:20:29.499Z,95217.94
2022-09-24T19:23:00.401Z,95217.94
2022-09-24T19:25:33.823Z,95227.19
2022-09-24T19:28:04.305Z,95216.34
2022-09-24T19:30:39.115Z,95217.50
2022-09-24T19:33:08.450Z,95225.91
2022-09-24T19:35:37.852Z,95218.41
2022-09-24T19:38:06.873Z,95222.72
2022-09-24T19:40:37.092Z,95214.63
2022-09-24T19:43:05.993Z,95203.94
2022-09-24T19:45:35.718Z,95220.31
2022-09-24T19:48:04.494Z,95215.13
2022-09-24T19:50:35.341Z,95215.25
2022-09-24T19:53:05.423Z,95220.91
2022-09-24T19:55:37.879Z,95224.81
2022-09-24T19:58:07.894Z,95228.41
2022-09-24T20:00:38.254Z,95222.16
2022-09-24T20:03:07.202Z,95226.13
2022-09-24T20:05:36.588Z,95230.94
2022-09-24T20:08:05.509Z,95225.53
2022-09-24T20:10:38.672Z,95232.44
2022-09-24T20:13:10.821Z,95229.09
2022-09-24T20:15:40.869Z,95228.75
2022-09-24T20:18:12.279Z,95232.22
2022-09-24T20:20:41.509Z,95224.00
2022-09-24T20:23:10.965Z,95230.22
2022-09-24T20:25:58.729Z,95234.72
2022-09-24T20:28:27.466Z,95230.22
2022-09-24T20:30:56.714Z,95232.38
2022-09-24T20:33:28.829Z,95227.91
2022-09-24T20:36:02.480Z,95222.84
2022-09-24T20:38:31.919Z,95230.19
2022-09-24T20:41:02.059Z,95227.44
2022-09-24T20:43:30.910Z,95226.59
2022-09-24T20:46:01.246Z,95225.44
2022-09-24T20:48:33.010Z,95230.75
2022-09-24T20:51:01.828Z,95243.13
2022-09-24T20:53:30.636Z,95244.09
2022-09-24T20:56:00.226Z,95253.22
2022-09-24T20:58:30.577Z,95247.81
2022-09-24T21:00:59.403Z,95244.38
2022-09-24T21:03:43.296Z,95251.88
2022-09-24T21:06:15.274Z,95251.56
2022-09-24T21:08:45.953Z,95251.34
2022-09-24T21:11:18.248Z,95256.06
2022-09-24T21:13:50.371Z,95252.91
2022-09-24T21:16:21.234Z,95256.50
2022-09-24T21:18:52.382Z,95256.00
2022-09-24T21:21:22.992Z,95252.44
2022-09-24T21:23:53.505Z,95245.97
2022-09-24T21:26:23.814Z,95253.16
2022-09-24T21:28:55.766Z,95249.53
2022-09-24T21:31:26.592Z,95233.56
2022-09-24T21:33:55.765Z,95234.28
2022-09-24T21:36:29.472Z,95231.69
2022-09-24T21:38:59.809Z,95230.38
2022-09-24T21:41:30.329Z,95228.63
2022-09-24T21:44:00.909Z,95231.09
2022-09-24T21:46:31.288Z,95233.72
2022-09-24T21:49:01.316Z,95223.59
2022-09-24T21:51:30.869Z,95225.81
2022-09-24T21:54:01.944Z,95231.47
2022-09-24T21:56:32.163Z,95230.78
2022-09-24T21:59:22.866Z,95233.44
2022-09-24T22:01:51.800Z,95228.03
2022-09-24T22:04:20.967Z,95228.03
2022-09-24T22:06:51.193Z,95226.81
2022-09-24T22:09:20.725Z,95224.19
2022-09-24T22:11:49.528Z,95247.84
2022-09-24T22:14:19.951Z,95250.47
2022-09-24T22:16:48.689Z,95242.25
2022-09-24T22:19:17.472Z,95243.03
2022-09-24T22:21:46.278Z,95246.47
2022-09-24T22:24:16.041Z,95245.66
2022-09-24T22:26:45.491Z,95236.47
2022-09-24T22:29:14.577Z,95241.97
2022-09-24T22:31:44.750Z,95245.78
2022-09-24T22:34:31.009Z,95240.03
2022-09-24T22:36:59.871Z,95243.28
2022-09-24T22:39:28.635Z,95244.69
2022-09-24T22:41:57.515Z,95242.84
2022-09-24T22:44:26.259Z,95247.63
2022-09-24T22:46:56.329Z,95255.59
2022-09-24T22:49:25.101Z,95251.56
2022-09-24T22:51:53.824Z,95251.50
2022-09-24T22:54:24.408Z,95254.34
2022-09-24T22:56:53.070Z,95253.50
2022-09-24T22:59:21.855Z,95252.31
2022-09-24T23:01:50.671Z,95253.41
2022-09-24T23:04:20.791Z,95250.69
2022-09-24T23:06:49.538Z,95252.19
2022-09-24T23:09:18.210Z,95249.25
2022-09-24T23:11:46.892Z,95252.53
2022-09-24T23:14:17.249Z,95245.22
2022-09-24T23:16:46.833Z,95241.38
2022-09-24T23:19:17.169Z,95248.22
2022-09-24T23:21:47.874Z,95247.81
2022-09-24T23:24:18.013Z,95246.72
2022-09-24T23:26:47.662Z,95248.50
2022-09-24T23:29:16.805Z,95245.31
2022-09-24T23:31:45.644Z,95253.09
2022-09-24T23:34:15.137Z,95244.19
2022-09-24T23:36:45.299Z,95248.88
2022-09-24T23:39:15.727Z,95241.50
2022-09-24T23:41:44.662Z,95242.53
2022-09-24T23:44:13.676Z,95236.91
2022-09-24T23:46:42.457Z,95252.97
2022-09-24T23:49:11.262Z,95245.94
2022-09-24T23:51:39.932Z,95250.75
2022-09-24T23:54:08.806Z,95247.69
2022-09-24T23:56:38.911Z,95238.03
2022-09-24T23:59:07.934Z,95239.16
